createdAt,value
2022-10-05T00:02:22.946Z,101332.84
2022-10-05T00:04:53.088Z,101337.75
2022-10-05T00:07:21.063Z,101339.81
2022-10-05T00:09:59.670Z,101336.13
2022-10-05T00:12:27.492Z,101337.97
2022-10-05T00:14:58.125Z,101324.59
2022-10-05T00:17:26.682Z,101324.41
2022-10-05T00:19:54.062Z,101315.94
2022-10-05T00:22:30.147Z,101320.91
2022-10-05T00:24:58.401Z,101323.59
2022-10-05T00:27:27.082Z,101310.81
2022-10-05T00:29:58.810Z,101321.28
2022-10-05T00:32:25.265Z,101310.41
2022-10-05T00:34:51.936Z,101310.41
2022-10-05T00:37:18.508Z,101313.50
2022-10-05T00:39:45.414Z,101321.09
2022-10-05T00:42:30.489Z,101314.94
2022-10-05T00:44:58.257Z,101322.34
2022-10-05T00:47:39.821Z,101320.91
2022-10-05T00:50:25.420Z,101305.22
2022-10-05T00:53:00.925Z,101301.94
2022-10-05T00:55:33.498Z,101290.63
2022-10-05T00:58:03.844Z,101268.59
2022-10-05T01:00:33.378Z,101272.28
2022-10-05T01:03:13.889Z,101272.72
2022-10-05T01:05:47.975Z,101274.16
2022-10-05T01:08:30.166Z,101264.28
2022-10-05T01:11:02.507Z,101254.81
2022-10-05T01:13:51.912Z,101245.34
2022-10-05T01:16:31.344Z,101263.25
2022-10-05T01:18:57.749Z,101268.59
2022-10-05T01:21:28.387Z,101265.72
2022-10-05T01:24:33.076Z,101265.53
2022-10-05T01:27:13.888Z,101266.75
2022-10-05T01:29:45.184Z,101257.91
2022-10-05T01:32:23.802Z,101258.13
2022-10-05T01:35:09.503Z,101261.19
2022-10-05T01:37:40.091Z,101254.22
2022-10-05T01:40:19.761Z,101257.53
2022-10-05T01:43:20.302Z,101243.72
2022-10-05T01:46:45.483Z,101245.56
2022-10-05T01:49:21.004Z,101232.59
2022-10-05T01:52:22.400Z,101229.09
2022-10-05T01:55:07.882Z,101230.53
2022-10-05T01:57:52.918Z,101230.53
2022-10-05T02:00:19.918Z,101213.25
2022-10-05T02:02:50.951Z,101206.25
2022-10-05T02:05:23.354Z,101211.38
2022-10-05T02:08:03.966Z,101219.22
2022-10-05T02:10:38.294Z,101211.19
2022-10-05T02:13:10.720Z,101206.88
2022-10-05T02:15:46.660Z,101217.56
2022-10-05T02:18:18.103Z,101206.25
2022-10-05T02:20:46.186Z,101212.63
2022-10-05T02:23:21.138Z,101207.25
2022-10-05T02:25:49.764Z,101214.06
2022-10-05T02:28:21.139Z,101193.50
2022-10-05T02:30:52.883Z,101196.16
2022-10-05T02:33:28.489Z,101205.22
2022-10-05T02:36:00.662Z,101188.97
2022-10-05T02:38:37.340Z,101194.69
2022-10-05T02:41:03.757Z,101188.75
2022-10-05T02:43:41.979Z,101183.41
2022-10-05T02:46:18.553Z,101180.94
2022-10-05T02:48:58.468Z,101178.44
2022-10-05T02:51:28.882Z,101178.88
2022-10-05T02:54:19.772Z,101162.81
2022-10-05T02:57:05.260Z,101172.06
2022-10-05T02:59:35.979Z,101168.97
2022-10-05T03:02:12.327Z,101172.91
2022-10-05T03:05:01.943Z,101172.28
2022-10-05T03:07:58.704Z,101175.56
2022-10-05T03:10:44.579Z,101179.50
2022-10-05T03:13:28.828Z,101172.06
2022-10-05T03:16:06.856Z,101192.88
2022-10-05T03:18:52.736Z,101177.44
2022-10-05T03:21:34.183Z,101169.78
2022-10-05T03:24:25.426Z,101168.16
2022-10-05T03:27:36.370Z,101155.81
2022-10-05T03:30:13.941Z,101152.72
2022-10-05T03:32:54.748Z,101151.50
2022-10-05T03:35:35.745Z,101167.97
2022-10-05T03:38:16.143Z,101162.63
2022-10-05T03:41:19.439Z,101159.72
2022-10-05T03:44:10.029Z,101152.53
2022-10-05T03:47:13.034Z,101149.22
2022-10-05T03:49:48.074Z,101144.91
2022-10-05T03:52:17.702Z,101138.53
2022-10-05T03:54:50.376Z,101140.38
2022-10-05T03:57:36.170Z,101135.03
2022-10-05T04:00:08.861Z,101131.13
2022-10-05T04:03:01.071Z,101125.56
2022-10-05T04:05:30.681Z,101120.84
2022-10-05T04:08:01.723Z,101117.13
2022-10-05T04:10:33.358Z,101116.13
2022-10-05T04:13:46.257Z,101113.84
2022-10-05T04:16:28.233Z,101106.66
2022-10-05T04:19:13.367Z,101124.34
2022-10-05T04:21:56.201Z,101115.06
2022-10-05T04:24:37.368Z,101122.47
2022-10-05T04:27:09.186Z,101110.53
2022-10-05T04:29:41.750Z,101099.00
2022-10-05T04:32:41.946Z,101106.22
2022-10-05T04:35:14.351Z,101105.19
2022-10-05T04:37:53.522Z,101101.50
2022-10-05T04:40:33.497Z,101093.47
2022-10-05T04:43:09.480Z,101089.75
2022-10-05T04:45:48.323Z,101092.63
2022-10-05T04:48:25.479Z,101099.00
2022-10-05T04:51:13.196Z,101088.13
2022-10-05T04:53:46.107Z,101092.22
2022-10-05T04:56:19.283Z,101083.78
2022-10-05T04:58:57.757Z,101084.19
2022-10-05T05:01:47.571Z,101091.19
2022-10-05T05:04:47.136Z,101080.72
2022-10-05T05:07:52.812Z,101080.09
2022-10-05T05:10:55.307Z,101077.81
2022-10-05T05:13:49.470Z,101080.47
2022-10-05T05:16:28.035Z,101077.41
2022-10-05T05:19:01.964Z,101083.59
2022-10-05T05:21:57.720Z,101076.78
2022-10-05T05:25:01.057Z,101077.00
2022-10-05T05:27:30.318Z,101066.09
2022-10-05T05:30:23.049Z,101067.53
2022-10-05T05:33:24.945Z,101061.56
2022-10-05T05:36:26.339Z,101056.44
2022-10-05T05:39:01.123Z,101054.78
2022-10-05T05:41:46.548Z,101056.63
2022-10-05T05:44:26.189Z,101059.94
2022-10-05T05:47:11.087Z,101075.97
2022-10-05T05:49:46.907Z,101072.25
2022-10-05T05:52:22.394Z,101058.88
2022-10-05T05:54:50.103Z,101067.97
2022-10-05T05:57:28.244Z,101064.03
2022-10-05T05:59:56.756Z,101064.25
2022-10-05T06:02:37.874Z,101061.56
2022-10-05T06:05:21.032Z,101063.00
2022-10-05T06:07:47.525Z,101067.53
2022-10-05T06:10:42.325Z,101072.47
2022-10-05T06:13:19.690Z,101070.81
2022-10-05T06:15:54.265Z,101074.31
2022-10-05T06:18:21.766Z,101079.03
2022-10-05T06:21:10.268Z,101085.22
2022-10-05T06:24:01.034Z,101084.19
2022-10-05T06:26:43.062Z,101095.53
2022-10-05T06:29:16.626Z,101101.69
2022-10-05T06:31:47.888Z,101097.97
2022-10-05T06:34:20.211Z,101109.53
2022-10-05T06:36:52.971Z,101102.50
2022-10-05T06:39:44.058Z,101098.81
2022-10-05T06:42:36.919Z,101081.91
2022-10-05T06:45:30.927Z,101095.72
2022-10-05T06:48:33.980Z,101089.75
2022-10-05T06:51:16.768Z,101078.00
2022-10-05T06:54:11.346Z,101089.31
2022-10-05T06:56:45.569Z,101083.56
2022-10-05T06:59:22.510Z,101075.94
2022-10-05T07:01:49.422Z,101076.16
2022-10-05T07:04:44.176Z,101068.97
2022-10-05T07:07:29.284Z,101078.84
2022-10-05T07:10:26.279Z,101071.00
2022-10-05T07:13:27.851Z,101081.28
2022-10-05T07:16:32.112Z,101079.44
2022-10-05T07:19:29.279Z,101075.13
2022-10-05T07:21:58.586Z,101069.56
2022-10-05T07:24:30.617Z,101077.00
2022-10-05T07:27:23.074Z,101072.66
2022-10-05T07:29:55.794Z,101069.38
2022-10-05T07:32:40.275Z,101070.19
2022-10-05T07:35:34.444Z,101070.59
2022-10-05T07:38:02.733Z,101069.34
2022-10-05T07:41:03.352Z,101068.09
2022-10-05T07:44:01.149Z,101054.09
2022-10-05T07:46:56.721Z,101062.94
2022-10-05T07:49:41.852Z,101048.28
2022-10-05T07:52:20.346Z,101050.34
2022-10-05T07:55:16.841Z,101053.19
2022-10-05T07:58:21.634Z,101051.56
2022-10-05T08:01:05.716Z,101065.13
2022-10-05T08:03:52.222Z,101064.94
2022-10-05T08:06:30.266Z,101064.72
2022-10-05T08:09:01.689Z,101066.75
2022-10-05T08:11:33.822Z,101057.72
2022-10-05T08:14:01.773Z,101056.47
2022-10-05T08:16:31.204Z,101061.81
2022-10-05T08:18:59.736Z,101057.28
2022-10-05T08:21:33.158Z,101048.41
2022-10-05T08:24:27.849Z,101052.72
2022-10-05T08:27:06.364Z,101050.66
2022-10-05T08:29:40.604Z,101052.31
2022-10-05T08:32:51.819Z,101061.19
2022-10-05T08:35:43.664Z,101053.94
2022-10-05T08:38:16.553Z,101047.78
2022-10-05T08:40:42.963Z,101042.00
2022-10-05T08:43:39.828Z,101046.53
2022-10-05T08:46:42.639Z,101044.28
2022-10-05T08:49:22.914Z,101042.44
2022-10-05T08:52:01.746Z,101040.78
2022-10-05T08:54:41.313Z,101045.09
2022-10-05T08:57:31.906Z,101039.16
2022-10-05T09:00:21.686Z,101034.34
2022-10-05T09:03:15.888Z,101040.28
2022-10-05T09:05:58.287Z,101032.22
2022-10-05T09:09:03.220Z,101038.66
2022-10-05T09:11:36.508Z,101048.97
2022-10-05T09:14:38.893Z,101051.41
2022-10-05T09:17:23.190Z,101040.72
2022-10-05T09:19:53.431Z,101043.16
2022-10-05T09:22:41.498Z,101041.97
2022-10-05T09:25:19.983Z,101045.81
2022-10-05T09:27:56.934Z,101046.84
2022-10-05T09:30:38.722Z,101035.09
2022-10-05T09:33:27.041Z,101032.41
2022-10-05T09:36:24.372Z,101036.97
2022-10-05T09:39:14.041Z,101033.44
2022-10-05T09:42:07.196Z,101033.84
2022-10-05T09:44:52.422Z,101021.31
2022-10-05T09:47:37.530Z,101014.91
2022-10-05T09:50:22.774Z,101014.88
2022-10-05T09:53:11.092Z,101012.94
2022-10-05T09:56:13.998Z,101020.13
2022-10-05T09:58:56.031Z,101008.16
2022-10-05T10:01:33.971Z,101012.09
2022-10-05T10:04:10.282Z,101015.34
2022-10-05T10:07:03.491Z,101017.22
2022-10-05T10:09:51.964Z,101007.50
2022-10-05T10:12:36.984Z,101005.44
2022-10-05T10:15:26.913Z,100993.03
2022-10-05T10:18:19.251Z,101002.53
2022-10-05T10:21:14.446Z,100995.97
2022-10-05T10:23:50.880Z,101000.13
2022-10-05T10:26:35.990Z,101004.63
2022-10-05T10:29:20.654Z,100997.13
2022-10-05T10:31:50.387Z,100999.66
2022-10-05T10:34:37.559Z,100996.13
2022-10-05T10:37:41.495Z,100994.09
2022-10-05T10:40:20.223Z,100991.22
2022-10-05T10:43:23.858Z,100993.28
2022-10-05T10:45:56.618Z,100992.47
2022-10-05T10:48:29.131Z,100987.50
2022-10-05T10:51:32.502Z,100991.44
2022-10-05T10:54:19.065Z,100992.84
2022-10-05T10:57:04.391Z,100983.19
2022-10-05T11:00:01.474Z,100993.44
2022-10-05T11:02:55.411Z,100986.19
2022-10-05T11:05:35.254Z,100980.81
2022-10-05T11:08:16.716Z,100985.53
2022-10-05T11:10:59.811Z,100983.41
2022-10-05T11:13:38.223Z,100978.78
2022-10-05T11:19:02.192Z,100975.22
2022-10-05T11:21:33.822Z,100976.22
2022-10-05T11:24:09.276Z,100975.56
2022-10-05T11:26:55.203Z,100970.34
2022-10-05T11:29:49.063Z,100963.59
2022-10-05T11:32:57.574Z,100954.44
2022-10-05T11:35:54.866Z,100954.13
2022-10-05T11:39:02.007Z,100966.34
2022-10-05T11:41:52.899Z,100958.16
2022-10-05T11:44:25.243Z,100937.13
2022-10-05T11:47:14.304Z,100950.69
2022-10-05T11:50:06.496Z,100950.53
2022-10-05T11:52:40.424Z,100941.75
2022-10-05T11:55:19.533Z,100951.50
2022-10-05T11:57:50.936Z,100944.97
2022-10-05T12:00:23.195Z,100951.38
2022-10-05T12:03:12.947Z,100950.75
2022-10-05T12:05:56.780Z,100946.72
2022-10-05T12:08:44.784Z,100954.38
2022-10-05T12:11:33.083Z,100952.59
2022-10-05T12:14:06.851Z,100953.03
2022-10-05T12:17:08.974Z,100948.34
2022-10-05T12:19:46.594Z,100939.03
2022-10-05T12:22:47.387Z,100938.81
2022-10-05T12:25:48.246Z,100933.44
2022-10-05T12:28:21.151Z,100935.47
2022-10-05T12:31:08.115Z,100930.84
2022-10-05T12:33:38.772Z,100933.84
2022-10-05T12:36:13.002Z,100932.81
2022-10-05T12:39:03.389Z,100928.72
2022-10-05T12:41:38.560Z,100927.94
2022-10-05T12:44:09.021Z,100927.19
2022-10-05T12:47:04.955Z,100926.16
2022-10-05T12:49:55.472Z,100932.94
2022-10-05T12:52:32.396Z,100935.00
2022-10-05T12:55:11.248Z,100934.06
2022-10-05T12:57:47.296Z,100925.19
2022-10-05T13:00:22.690Z,100933.66
2022-10-05T13:02:51.374Z,100933.66
2022-10-05T13:05:49.798Z,100920.25
2022-10-05T13:08:34.036Z,100918.84
2022-10-05T13:11:06.471Z,100909.75
2022-10-05T13:13:46.649Z,100916.97
2022-10-05T13:16:17.084Z,100914.28
2022-10-05T13:19:12.278Z,100909.38
2022-10-05T13:22:00.506Z,100908.63
2022-10-05T13:24:33.508Z,100909.06
2022-10-05T13:27:08.438Z,100915.72
2022-10-05T13:29:42.715Z,100914.28
2022-10-05T13:32:25.798Z,100909.94
2022-10-05T13:35:17.126Z,100909.94
2022-10-05T13:38:00.310Z,100895.38
2022-10-05T13:40:54.620Z,100897.59
2022-10-05T13:43:46.054Z,100905.03
2022-10-05T13:46:16.220Z,100893.25
2022-10-05T13:49:08.237Z,100903.03
2022-10-05T13:51:37.490Z,100904.88
2022-10-05T13:54:06.814Z,100905.69
2022-10-05T13:56:46.515Z,100909.03
2022-10-05T13:59:33.558Z,100912.78
2022-10-05T14:02:10.348Z,100900.56
2022-10-05T14:04:49.394Z,100905.91
2022-10-05T14:07:36.091Z,100908.22
2022-10-05T14:10:04.638Z,100902.47
2022-10-05T14:12:39.362Z,100902.88
2022-10-05T14:15:38.484Z,100891.53
2022-10-05T14:18:37.147Z,100899.38
2022-10-05T14:21:12.789Z,100895.50
2022-10-05T14:23:39.511Z,100904.59
2022-10-05T14:26:33.396Z,100897.81
2022-10-05T14:29:17.660Z,100889.97
2022-10-05T14:31:52.564Z,100882.59
2022-10-05T14:34:56.373Z,100898.69
2022-10-05T14:37:32.231Z,100883.03
2022-10-05T14:40:07.532Z,100888.00
2022-10-05T14:42:46.954Z,100887.19
2022-10-05T14:45:18.635Z,100879.59
2022-10-05T14:47:50.388Z,100878.75
2022-10-05T14:50:26.055Z,100888.31
2022-10-05T14:53:10.906Z,100880.25
2022-10-05T14:56:18.506Z,100888.75
2022-10-05T14:59:07.575Z,100876.38
2022-10-05T15:01:36.588Z,100877.44
2022-10-05T15:04:14.291Z,100875.34
2022-10-05T15:06:57.625Z,100870.19
2022-10-05T15:09:51.029Z,100867.38
2022-10-05T15:12:32.172Z,100880.97
2022-10-05T15:15:06.831Z,100882.78
2022-10-05T15:17:44.740Z,100869.16
2022-10-05T15:20:24.520Z,100885.81
2022-10-05T15:23:23.635Z,100874.97
2022-10-05T15:25:53.546Z,100876.81
2022-10-05T15:28:33.292Z,100892.28
2022-10-05T15:31:17.494Z,100884.03
2022-10-05T15:33:58.978Z,100880.31
2022-10-05T15:36:55.923Z,100873.53
2022-10-05T15:39:34.581Z,100877.25
2022-10-05T15:42:03.937Z,100870.41
2022-10-05T15:44:49.057Z,100870.84
2022-10-05T15:47:59.456Z,100865.50
2022-10-05T15:50:28.412Z,100869.81
2022-10-05T15:53:13.036Z,100863.19
2022-10-05T15:55:47.069Z,100864.03
2022-10-05T15:58:39.348Z,100865.06
2022-10-05T16:01:33.291Z,100863.44
2022-10-05T16:04:11.403Z,100867.38
2022-10-05T16:07:31.357Z,100860.34
2022-10-05T16:10:18.359Z,100853.16
2022-10-05T16:12:55.875Z,100849.63
2022-10-05T16:15:29.179Z,100852.09
2022-10-05T16:18:13.060Z,100855.84
2022-10-05T16:20:50.395Z,100850.47
2022-10-05T16:23:52.556Z,100840.78
2022-10-05T16:26:34.869Z,100852.91
2022-10-05T16:29:15.108Z,100852.31
2022-10-05T16:32:02.707Z,100845.28
2022-10-05T16:34:49.286Z,100856.16
2022-10-05T16:37:35.589Z,100847.28
2022-10-05T16:40:14.079Z,100848.56
2022-10-05T16:42:59.762Z,100850.63
2022-10-05T16:45:51.574Z,100859.31
2022-10-05T16:48:27.129Z,100862.16
2022-10-05T16:51:12.855Z,100857.31
2022-10-05T16:53:45.137Z,100842.69
2022-10-05T16:56:15.510Z,100857.88
2022-10-05T16:58:53.924Z,100851.25
2022-10-05T17:01:32.499Z,100854.97
2022-10-05T17:04:29.235Z,100840.91
2022-10-05T17:07:19.003Z,100837.56
2022-10-05T17:09:51.417Z,100838.16
2022-10-05T17:12:36.660Z,100840.41
2022-10-05T17:15:28.693Z,100834.59
2022-10-05T17:18:24.803Z,100831.19
2022-10-05T17:21:02.449Z,100820.31
2022-10-05T17:23:50.522Z,100818.38
2022-10-05T17:26:23.035Z,100809.19
2022-10-05T17:28:52.295Z,100817.00
2022-10-05T17:31:21.589Z,100803.91
2022-10-05T17:34:01.377Z,100801.22
2022-10-05T17:36:47.634Z,100807.25
2022-10-05T17:39:18.226Z,100807.00
2022-10-05T17:41:45.388Z,100790.63
2022-10-05T17:44:19.524Z,100810.22
2022-10-05T17:46:49.738Z,100803.44
2022-10-05T17:49:25.947Z,100791.66
2022-10-05T17:52:11.089Z,100787.84
2022-10-05T17:55:05.197Z,100792.84
2022-10-05T17:57:31.901Z,100786.19
2022-10-05T18:00:01.972Z,100797.53
2022-10-05T18:02:36.378Z,100785.16
2022-10-05T18:05:12.568Z,100781.06
2022-10-05T18:07:49.574Z,100786.78
2022-10-05T18:10:29.323Z,100770.47
2022-10-05T18:12:58.687Z,100769.66
2022-10-05T18:15:25.053Z,100768.19
2022-10-05T18:17:57.129Z,100773.16
2022-10-05T18:20:26.890Z,100772.56
2022-10-05T18:23:03.426Z,100781.88
2022-10-05T18:25:47.993Z,100772.78
2022-10-05T18:28:52.148Z,100773.16
2022-10-05T18:31:26.326Z,100768.81
2022-10-05T18:34:05.190Z,100774.78
2022-10-05T18:37:07.150Z,100769.84
2022-10-05T18:40:10.188Z,100792.31
2022-10-05T18:42:41.598Z,100770.78
2022-10-05T18:45:22.753Z,100773.66
2022-10-05T18:48:07.441Z,100768.31
2022-10-05T18:50:44.220Z,100761.78
2022-10-05T18:53:25.744Z,100768.44
2022-10-05T18:56:17.086Z,100758.75
2022-10-05T18:58:59.216Z,100776.47
2022-10-05T19:01:30.353Z,100782.31
2022-10-05T19:04:19.139Z,100764.13
2022-10-05T19:07:16.734Z,100782.00
2022-10-05T19:10:11.493Z,100775.69
2022-10-05T19:12:59.319Z,100781.50
2022-10-05T19:15:46.972Z,100790.97
2022-10-05T19:18:35.283Z,100787.09
2022-10-05T19:21:21.485Z,100792.38
2022-10-05T19:24:16.753Z,100780.81
2022-10-05T19:27:03.110Z,100792.69
2022-10-05T19:29:47.421Z,100793.56
2022-10-05T19:32:39.643Z,100784.19
2022-10-05T19:35:31.714Z,100790.63
2022-10-05T19:38:15.369Z,100804.25
2022-10-05T19:41:03.548Z,100806.63
2022-10-05T19:44:08.813Z,100823.63
2022-10-05T19:46:56.226Z,100815.97
2022-10-05T19:49:52.516Z,100820.50
2022-10-05T19:52:28.421Z,100827.16
2022-10-05T19:55:22.363Z,100825.19
2022-10-05T19:57:54.759Z,100832.28
2022-10-05T20:00:35.544Z,100825.63
2022-10-05T20:03:16.462Z,100823.00
2022-10-05T20:05:43.218Z,100823.44
2022-10-05T20:08:19.863Z,100827.13
2022-10-05T20:11:04.207Z,100832.63
2022-10-05T20:13:33.413Z,100833.66
2022-10-05T20:16:33.919Z,100843.63
2022-10-05T20:19:49.786Z,100844.16
2022-10-05T20:22:35.763Z,100842.84
2022-10-05T20:25:18.301Z,100830.34
2022-10-05T20:27:46.663Z,100834.13
2022-10-05T20:30:19.063Z,100823.47
2022-10-05T20:32:49.827Z,100838.34
2022-10-05T20:35:18.122Z,100826.84
2022-10-05T20:37:44.598Z,100826.69
2022-10-05T20:40:11.458Z,100825.66
2022-10-05T20:42:38.023Z,100819.13
2022-10-05T20:45:06.264Z,100811.75
2022-10-05T20:47:33.697Z,100807.84
2022-10-05T20:50:01.383Z,100810.53
2022-10-05T20:52:27.851Z,100807.41
2022-10-05T20:54:56.962Z,100811.94
2022-10-05T20:57:24.208Z,100812.13
2022-10-05T20:59:51.630Z,100819.34
2022-10-05T21:02:20.898Z,100814.16
2022-10-05T21:04:47.666Z,100828.13
2022-10-05T21:07:19.605Z,100818.59
2022-10-05T21:09:46.601Z,100817.28
2022-10-05T21:12:13.746Z,100826.06
2022-10-05T21:14:40.572Z,100820.00
2022-10-05T21:17:07.359Z,100848.41
2022-10-05T21:19:38.213Z,100834.81
2022-10-05T21:22:07.220Z,100855.84
2022-10-05T21:24:35.860Z,100880.22
2022-10-05T21:27:02.694Z,100871.22
2022-10-05T21:29:29.441Z,100863.72
2022-10-05T21:31:56.418Z,100866.63
2022-10-05T21:34:23.009Z,100876.53
2022-10-05T21:36:49.681Z,100889.53
2022-10-05T21:39:16.797Z,100895.69
2022-10-05T21:41:43.287Z,100906.22
2022-10-05T21:44:09.766Z,100905.41
2022-10-05T21:46:37.023Z,100903.56
2022-10-05T21:49:05.622Z,100904.81
2022-10-05T21:51:32.954Z,100900.09
2022-10-05T21:54:03.535Z,100904.00
2022-10-05T21:56:42.191Z,100909.78
2022-10-05T21:59:11.271Z,100913.28
2022-10-05T22:01:37.731Z,100916.59
2022-10-05T22:04:05.612Z,100938.59
2022-10-05T22:06:32.272Z,100941.69
2022-10-05T22:08:59.541Z,100938.19
2022-10-05T22:11:26.498Z,100938.41
2022-10-05T22:13:53.424Z,100930.38
2022-10-05T22:16:22.226Z,100932.25
2022-10-05T22:18:49.170Z,100937.97
2022-10-05T22:21:16.099Z,100936.72
2022-10-05T22:23:43.956Z,100944.75
2022-10-05T22:26:12.446Z,100946.63
2022-10-05T22:28:39.901Z,100941.25
2022-10-05T22:31:07.843Z,100946.59
2022-10-05T22:33:35.075Z,100956.06
2022-10-05T22:36:01.561Z,100946.38
2022-10-05T22:38:30.281Z,100941.63
2022-10-05T22:40:57.212Z,100945.97
2022-10-05T22:43:24.907Z,100949.25
2022-10-05T22:45:51.479Z,100950.06
2022-10-05T22:48:18.503Z,100973.91
2022-10-05T22:50:45.830Z,100989.16
2022-10-05T22:53:12.770Z,100984.69
2022-10-05T22:55:39.279Z,100987.97
2022-10-05T22:58:05.837Z,101022.94
2022-10-05T23:00:56.429Z,101013.06
2022-10-05T23:03:19.946Z,101017.75
2022-10-05T23:05:46.476Z,101028.03
2022-10-05T23:08:12.936Z,101027.59
2022-10-05T23:10:39.418Z,101030.66
2022-10-05T23:13:06.261Z,101033.13
2022-10-05T23:15:34.231Z,101041.53
2022-10-05T23:18:00.745Z,101047.25
2022-10-05T23:20:27.320Z,101051.13
2022-10-05T23:22:53.772Z,101052.34
2022-10-05T23:25:22.090Z,101063.25
2022-10-05T23:27:48.671Z,101056.25
2022-10-05T23:30:15.269Z,101068.59
2022-10-05T23:32:43.450Z,101067.97
2022-10-05T23:35:11.733Z,101073.31
2022-10-05T23:37:42.929Z,101078.00
2022-10-05T23:40:12.483Z,101078.84
2022-10-05T23:42:42.074Z,101080.69
2022-10-05T23:45:10.526Z,101081.28
2022-10-05T23:47:37.231Z,101082.94
2022-10-05T23:50:05.260Z,101089.53
2022-10-05T23:52:31.896Z,101085.44
2022-10-05T23:54:58.356Z,101096.06
2022-10-05T23:57:25.457Z,101100.38
2022-10-05T23:59:52.072Z,101100.19
